sensor_id;sensor_type;location;lat;lon;timestamp;P1;durP1;ratioP1;P2;durP2;ratioP2
7703;SDS011;3894;49.700;10.770;2023-05-07T00:01:35;4.28;;;1.85;;
7703;SDS011;3894;49.700;10.770;2023-05-07T00:04:00;4.30;;;1.23;;
7703;SDS011;3894;49.700;10.770;2023-05-07T00:06:26;4.72;;;1.70;;
7703;SDS011;3894;49.700;10.770;2023-05-07T00:08:53;4.60;;;1.40;;
7703;SDS011;3894;49.700;10.770;2023-05-07T00:11:20;3.83;;;1.13;;
7703;SDS011;3894;49.700;10.770;2023-05-07T00:13:47;3.55;;;0.80;;
7703;SDS011;3894;49.700;10.770;2023-05-07T00:16:13;3.70;;;0.82;;
7703;SDS011;3894;49.700;10.770;2023-05-07T00:18:38;4.53;;;1.10;;
7703;SDS011;3894;49.700;10.770;2023-05-07T00:21:04;3.88;;;1.13;;
7703;SDS011;3894;49.700;10.770;2023-05-07T00:23:30;4.00;;;1.05;;
7703;SDS011;3894;49.700;10.770;2023-05-07T00:25:55;4.82;;;1.92;;
7703;SDS011;3894;49.700;10.770;2023-05-07T00:28:21;4.38;;;1.20;;
7703;SDS011;3894;49.700;10.770;2023-05-07T00:30:47;4.10;;;1.17;;
7703;SDS011;3894;49.700;10.770;2023-05-07T00:33:12;3.97;;;1.42;;
7703;SDS011;3894;49.700;10.770;2023-05-07T00:35:38;4.22;;;1.17;;
7703;SDS011;3894;49.700;10.770;2023-05-07T00:38:04;4.75;;;2.33;;
7703;SDS011;3894;49.700;10.770;2023-05-07T00:40:29;5.20;;;1.45;;
7703;SDS011;3894;49.700;10.770;2023-05-07T00:42:55;6.28;;;1.40;;
7703;SDS011;3894;49.700;10.770;2023-05-07T00:45:23;4.10;;;1.42;;
7703;SDS011;3894;49.700;10.770;2023-05-07T00:47:54;4.35;;;1.30;;
7703;SDS011;3894;49.700;10.770;2023-05-07T00:50:23;4.15;;;1.38;;
7703;SDS011;3894;49.700;10.770;2023-05-07T00:52:49;5.47;;;1.50;;
7703;SDS011;3894;49.700;10.770;2023-05-07T00:55:14;4.13;;;1.25;;
7703;SDS011;3894;49.700;10.770;2023-05-07T00:57:40;4.25;;;1.38;;
7703;SDS011;3894;49.700;10.770;2023-05-07T01:00:07;3.53;;;1.00;;
7703;SDS011;3894;49.700;10.770;2023-05-07T01:02:34;4.78;;;1.52;;
7703;SDS011;3894;49.700;10.770;2023-05-07T01:05:01;6.55;;;2.17;;
7703;SDS011;3894;49.700;10.770;2023-05-07T01:07:28;5.07;;;1.58;;
7703;SDS011;3894;49.700;10.770;2023-05-07T01:09:55;6.07;;;1.63;;
7703;SDS011;3894;49.700;10.770;2023-05-07T01:12:21;5.65;;;1.35;;
7703;SDS011;3894;49.700;10.770;2023-05-07T01:14:48;4.68;;;1.63;;
7703;SDS011;3894;49.700;10.770;2023-05-07T01:17:15;4.80;;;1.65;;
7703;SDS011;3894;49.700;10.770;2023-05-07T01:19:41;4.75;;;1.10;;
7703;SDS011;3894;49.700;10.770;2023-05-07T01:22:07;5.25;;;1.58;;
7703;SDS011;3894;49.700;10.770;2023-05-07T01:24:36;6.03;;;1.75;;
7703;SDS011;3894;49.700;10.770;2023-05-07T01:27:02;4.57;;;1.45;;
7703;SDS011;3894;49.700;10.770;2023-05-07T01:29:28;4.35;;;1.50;;
7703;SDS011;3894;49.700;10.770;2023-05-07T01:31:54;6.13;;;2.08;;
7703;SDS011;3894;49.700;10.770;2023-05-07T01:34:23;5.97;;;1.58;;
7703;SDS011;3894;49.700;10.770;2023-05-07T01:36:52;4.45;;;1.58;;
7703;SDS011;3894;49.700;10.770;2023-05-07T01:39:18;4.78;;;1.50;;
7703;SDS011;3894;49.700;10.770;2023-05-07T01:41:44;4.75;;;1.60;;
7703;SDS011;3894;49.700;10.770;2023-05-07T01:44:10;4.07;;;1.55;;
7703;SDS011;3894;49.700;10.770;2023-05-07T01:46:38;5.05;;;2.05;;
7703;SDS011;3894;49.700;10.770;2023-05-07T01:49:04;4.75;;;1.55;;
7703;SDS011;3894;49.700;10.770;2023-05-07T01:51:29;5.10;;;1.80;;
7703;SDS011;3894;49.700;10.770;2023-05-07T01:53:56;4.80;;;1.33;;
7703;SDS011;3894;49.700;10.770;2023-05-07T01:56:23;6.03;;;1.58;;
7703;SDS011;3894;49.700;10.770;2023-05-07T01:58:49;4.35;;;2.08;;
7703;SDS011;3894;49.700;10.770;2023-05-07T02:01:16;5.47;;;1.63;;
7703;SDS011;3894;49.700;10.770;2023-05-07T02:03:41;4.60;;;1.30;;
7703;SDS011;3894;49.700;10.770;2023-05-07T02:06:07;6.20;;;1.90;;
7703;SDS011;3894;49.700;10.770;2023-05-07T02:08:33;5.03;;;1.65;;
7703;SDS011;3894;49.700;10.770;2023-05-07T02:10:58;4.53;;;1.80;;
7703;SDS011;3894;49.700;10.770;2023-05-07T02:13:24;4.78;;;1.60;;
7703;SDS011;3894;49.700;10.770;2023-05-07T02:15:50;5.75;;;2.30;;
7703;SDS011;3894;49.700;10.770;2023-05-07T02:18:16;5.95;;;2.08;;
7703;SDS011;3894;49.700;10.770;2023-05-07T02:20:42;5.25;;;1.88;;
7703;SDS011;3894;49.700;10.770;2023-05-07T02:23:08;5.20;;;2.25;;
7703;SDS011;3894;49.700;10.770;2023-05-07T02:25:33;5.38;;;3.00;;
7703;SDS011;3894;49.700;10.770;2023-05-07T02:27:59;5.22;;;2.03;;
7703;SDS011;3894;49.700;10.770;2023-05-07T02:30:26;5.45;;;1.95;;
7703;SDS011;3894;49.700;10.770;2023-05-07T02:32:51;5.53;;;2.45;;
7703;SDS011;3894;49.700;10.770;2023-05-07T02:35:17;5.78;;;2.00;;
7703;SDS011;3894;49.700;10.770;2023-05-07T02:37:43;5.65;;;1.83;;
7703;SDS011;3894;49.700;10.770;2023-05-07T02:40:08;6.28;;;1.98;;
7703;SDS011;3894;49.700;10.770;2023-05-07T02:42:34;5.20;;;2.08;;
7703;SDS011;3894;49.700;10.770;2023-05-07T02:45:00;5.65;;;1.90;;
7703;SDS011;3894;49.700;10.770;2023-05-07T02:47:26;6.43;;;2.10;;
7703;SDS011;3894;49.700;10.770;2023-05-07T02:49:53;5.65;;;2.25;;
7703;SDS011;3894;49.700;10.770;2023-05-07T02:52:22;5.00;;;2.00;;
7703;SDS011;3894;49.700;10.770;2023-05-07T02:54:48;5.55;;;2.08;;
7703;SDS011;3894;49.700;10.770;2023-05-07T02:57:14;4.85;;;2.20;;
7703;SDS011;3894;49.700;10.770;2023-05-07T02:59:40;6.13;;;2.40;;
7703;SDS011;3894;49.700;10.770;2023-05-07T03:02:06;5.10;;;1.80;;
7703;SDS011;3894;49.700;10.770;2023-05-07T03:04:31;6.45;;;2.55;;
7703;SDS011;3894;49.700;10.770;2023-05-07T03:06:57;5.35;;;2.35;;
7703;SDS011;3894;49.700;10.770;2023-05-07T03:09:22;5.68;;;2.20;;
7703;SDS011;3894;49.700;10.770;2023-05-07T03:11:48;5.03;;;2.00;;
7703;SDS011;3894;49.700;10.770;2023-05-07T03:14:14;5.78;;;2.55;;
7703;SDS011;3894;49.700;10.770;2023-05-07T03:16:39;6.80;;;2.53;;
7703;SDS011;3894;49.700;10.770;2023-05-07T03:19:05;5.45;;;2.05;;
7703;SDS011;3894;49.700;10.770;2023-05-07T03:21:30;8.23;;;2.60;;
7703;SDS011;3894;49.700;10.770;2023-05-07T03:28:50;11.25;;;6.10;;
7703;SDS011;3894;49.700;10.770;2023-05-07T03:31:16;7.75;;;3.25;;
7703;SDS011;3894;49.700;10.770;2023-05-07T03:33:52;7.78;;;4.43;;
7703;SDS011;3894;49.700;10.770;2023-05-07T03:36:18;5.65;;;3.10;;
7703;SDS011;3894;49.700;10.770;2023-05-07T03:38:45;7.65;;;3.67;;
7703;SDS011;3894;49.700;10.770;2023-05-07T03:41:11;5.90;;;2.80;;
7703;SDS011;3894;49.700;10.770;2023-05-07T03:43:36;6.53;;;3.20;;
7703;SDS011;3894;49.700;10.770;2023-05-07T03:46:02;6.32;;;2.72;;
7703;SDS011;3894;49.700;10.770;2023-05-07T03:48:27;6.65;;;2.83;;
7703;SDS011;3894;49.700;10.770;2023-05-07T03:50:53;6.15;;;2.90;;
7703;SDS011;3894;49.700;10.770;2023-05-07T03:53:19;7.50;;;3.10;;
7703;SDS011;3894;49.700;10.770;2023-05-07T03:55:44;5.82;;;2.70;;
7703;SDS011;3894;49.700;10.770;2023-05-07T03:58:10;7.38;;;2.70;;
7703;SDS011;3894;49.700;10.770;2023-05-07T04:00:35;6.57;;;3.03;;
7703;SDS011;3894;49.700;10.770;2023-05-07T04:03:03;8.27;;;2.78;;
7703;SDS011;3894;49.700;10.770;2023-05-07T04:05:30;5.78;;;2.53;;
7703;SDS011;3894;49.700;10.770;2023-05-07T04:07:57;6.28;;;2.67;;
7703;SDS011;3894;49.700;10.770;2023-05-07T04:15:14;7.57;;;3.35;;
7703;SDS011;3894;49.700;10.770;2023-05-07T04:17:40;5.95;;;2.88;;
7703;SDS011;3894;49.700;10.770;2023-05-07T04:20:08;6.22;;;2.92;;
7703;SDS011;3894;49.700;10.770;2023-05-07T04:22:35;8.07;;;2.85;;
7703;SDS011;3894;49.700;10.770;2023-05-07T04:25:01;6.07;;;2.75;;
7703;SDS011;3894;49.700;10.770;2023-05-07T04:27:27;5.40;;;2.47;;
7703;SDS011;3894;49.700;10.770;2023-05-07T04:29:53;6.05;;;2.60;;
7703;SDS011;3894;49.700;10.770;2023-05-07T04:32:20;6.55;;;2.67;;
7703;SDS011;3894;49.700;10.770;2023-05-07T04:34:46;6.50;;;2.50;;
7703;SDS011;3894;49.700;10.770;2023-05-07T04:37:12;7.45;;;2.88;;
7703;SDS011;3894;49.700;10.770;2023-05-07T04:39:37;8.38;;;3.55;;
7703;SDS011;3894;49.700;10.770;2023-05-07T04:42:03;5.82;;;2.60;;
7703;SDS011;3894;49.700;10.770;2023-05-07T04:44:28;6.35;;;3.08;;
7703;SDS011;3894;49.700;10.770;2023-05-07T04:46:56;7.05;;;2.80;;
7703;SDS011;3894;49.700;10.770;2023-05-07T04:49:21;5.47;;;2.53;;
7703;SDS011;3894;49.700;10.770;2023-05-07T04:51:47;6.10;;;2.60;;
7703;SDS011;3894;49.700;10.770;2023-05-07T04:54:13;6.50;;;3.38;;
7703;SDS011;3894;49.700;10.770;2023-05-07T04:56:38;8.18;;;2.58;;
7703;SDS011;3894;49.700;10.770;2023-05-07T04:59:04;6.50;;;3.08;;
7703;SDS011;3894;49.700;10.770;2023-05-07T05:01:29;6.55;;;3.53;;
7703;SDS011;3894;49.700;10.770;2023-05-07T05:03:55;7.45;;;3.45;;
7703;SDS011;3894;49.700;10.770;2023-05-07T05:06:20;7.28;;;3.38;;
7703;SDS011;3894;49.700;10.770;2023-05-07T05:08:46;8.00;;;3.63;;
7703;SDS011;3894;49.700;10.770;2023-05-07T05:11:11;8.68;;;3.65;;
7703;SDS011;3894;49.700;10.770;2023-05-07T05:13:37;8.80;;;4.07;;
7703;SDS011;3894;49.700;10.770;2023-05-07T05:16:03;6.35;;;3.20;;
7703;SDS011;3894;49.700;10.770;2023-05-07T05:18:28;8.45;;;4.72;;
7703;SDS011;3894;49.700;10.770;2023-05-07T05:20:54;7.72;;;3.83;;
7703;SDS011;3894;49.700;10.770;2023-05-07T05:23:19;7.18;;;3.58;;
7703;SDS011;3894;49.700;10.770;2023-05-07T05:25:45;8.15;;;4.57;;
7703;SDS011;3894;49.700;10.770;2023-05-07T05:28:11;9.60;;;4.65;;
7703;SDS011;3894;49.700;10.770;2023-05-07T05:30:36;8.20;;;4.25;;
7703;SDS011;3894;49.700;10.770;2023-05-07T05:33:02;8.30;;;4.68;;
7703;SDS011;3894;49.700;10.770;2023-05-07T05:35:27;8.13;;;4.30;;
7703;SDS011;3894;49.700;10.770;2023-05-07T05:37:54;8.93;;;4.75;;
7703;SDS011;3894;49.700;10.770;2023-05-07T05:40:20;7.28;;;4.05;;
7703;SDS011;3894;49.700;10.770;2023-05-07T05:42:45;8.02;;;3.67;;
7703;SDS011;3894;49.700;10.770;2023-05-07T05:45:11;8.05;;;3.72;;
7703;SDS011;3894;49.700;10.770;2023-05-07T05:47:37;8.48;;;4.00;;
7703;SDS011;3894;49.700;10.770;2023-05-07T05:50:03;7.60;;;4.25;;
7703;SDS011;3894;49.700;10.770;2023-05-07T05:52:31;7.95;;;4.07;;
7703;SDS011;3894;49.700;10.770;2023-05-07T05:54:56;8.98;;;4.43;;
7703;SDS011;3894;49.700;10.770;2023-05-07T05:57:22;9.38;;;4.55;;
7703;SDS011;3894;49.700;10.770;2023-05-07T05:59:51;9.02;;;4.70;;
7703;SDS011;3894;49.700;10.770;2023-05-07T06:02:16;9.40;;;5.22;;
7703;SDS011;3894;49.700;10.770;2023-05-07T06:04:42;10.18;;;4.80;;
7703;SDS011;3894;49.700;10.770;2023-05-07T06:07:08;9.90;;;5.35;;
7703;SDS011;3894;49.700;10.770;2023-05-07T06:09:34;11.77;;;5.50;;
7703;SDS011;3894;49.700;10.770;2023-05-07T06:11:59;11.07;;;4.70;;
7703;SDS011;3894;49.700;10.770;2023-05-07T06:14:25;9.63;;;5.03;;
7703;SDS011;3894;49.700;10.770;2023-05-07T06:16:50;8.45;;;4.63;;
7703;SDS011;3894;49.700;10.770;2023-05-07T06:19:16;9.77;;;4.68;;
7703;SDS011;3894;49.700;10.770;2023-05-07T06:21:43;10.07;;;5.15;;
7703;SDS011;3894;49.700;10.770;2023-05-07T06:24:08;9.45;;;5.20;;
7703;SDS011;3894;49.700;10.770;2023-05-07T06:26:35;11.32;;;6.53;;
7703;SDS011;3894;49.700;10.770;2023-05-07T06:29:00;8.52;;;5.07;;
7703;SDS011;3894;49.700;10.770;2023-05-07T06:31:28;10.85;;;5.93;;
7703;SDS011;3894;49.700;10.770;2023-05-07T06:33:55;11.35;;;5.03;;
7703;SDS011;3894;49.700;10.770;2023-05-07T06:36:21;10.13;;;5.63;;
7703;SDS011;3894;49.700;10.770;2023-05-07T06:38:46;9.18;;;4.88;;
7703;SDS011;3894;49.700;10.770;2023-05-07T06:41:12;10.02;;;5.40;;
7703;SDS011;3894;49.700;10.770;2023-05-07T06:43:38;9.93;;;5.43;;
7703;SDS011;3894;49.700;10.770;2023-05-07T06:46:04;9.95;;;5.25;;
7703;SDS011;3894;49.700;10.770;2023-05-07T06:48:30;8.77;;;4.57;;
7703;SDS011;3894;49.700;10.770;2023-05-07T06:50:56;9.45;;;4.90;;
7703;SDS011;3894;49.700;10.770;2023-05-07T06:53:22;9.48;;;5.25;;
7703;SDS011;3894;49.700;10.770;2023-05-07T06:55:48;10.45;;;5.53;;
7703;SDS011;3894;49.700;10.770;2023-05-07T06:58:14;10.05;;;5.15;;
7703;SDS011;3894;49.700;10.770;2023-05-07T07:00:39;9.95;;;5.03;;
7703;SDS011;3894;49.700;10.770;2023-05-07T07:03:05;10.73;;;4.97;;
7703;SDS011;3894;49.700;10.770;2023-05-07T07:05:31;11.35;;;5.28;;
7703;SDS011;3894;49.700;10.770;2023-05-07T07:07:57;11.43;;;5.15;;
7703;SDS011;3894;49.700;10.770;2023-05-07T07:10:22;9.45;;;5.22;;
7703;SDS011;3894;49.700;10.770;2023-05-07T07:12:48;9.27;;;4.65;;
7703;SDS011;3894;49.700;10.770;2023-05-07T07:15:14;10.38;;;5.10;;
7703;SDS011;3894;49.700;10.770;2023-05-07T07:17:40;9.48;;;4.72;;
7703;SDS011;3894;49.700;10.770;2023-05-07T07:20:06;9.48;;;4.60;;
7703;SDS011;3894;49.700;10.770;2023-05-07T07:22:32;8.25;;;4.63;;
7703;SDS011;3894;49.700;10.770;2023-05-07T07:24:57;8.90;;;5.22;;
7703;SDS011;3894;49.700;10.770;2023-05-07T07:27:23;9.18;;;4.70;;
7703;SDS011;3894;49.700;10.770;2023-05-07T07:29:48;9.02;;;4.53;;
7703;SDS011;3894;49.700;10.770;2023-05-07T07:32:14;9.50;;;4.60;;
7703;SDS011;3894;49.700;10.770;2023-05-07T07:34:39;9.10;;;4.38;;
7703;SDS011;3894;49.700;10.770;2023-05-07T07:37:05;9.90;;;4.82;;
7703;SDS011;3894;49.700;10.770;2023-05-07T07:39:34;10.57;;;5.05;;
7703;SDS011;3894;49.700;10.770;2023-05-07T07:42:02;9.15;;;4.65;;
7703;SDS011;3894;49.700;10.770;2023-05-07T07:44:28;8.23;;;4.25;;
7703;SDS011;3894;49.700;10.770;2023-05-07T07:46:53;8.30;;;4.65;;
7703;SDS011;3894;49.700;10.770;2023-05-07T07:49:19;10.00;;;4.78;;
7703;SDS011;3894;49.700;10.770;2023-05-07T07:51:45;10.45;;;4.88;;
7703;SDS011;3894;49.700;10.770;2023-05-07T07:54:10;8.93;;;4.32;;
7703;SDS011;3894;49.700;10.770;2023-05-07T07:56:36;8.05;;;4.70;;
7703;SDS011;3894;49.700;10.770;2023-05-07T07:59:01;9.88;;;4.63;;
7703;SDS011;3894;49.700;10.770;2023-05-07T08:01:29;9.45;;;4.72;;
7703;SDS011;3894;49.700;10.770;2023-05-07T08:03:55;8.55;;;4.55;;
7703;SDS011;3894;49.700;10.770;2023-05-07T08:08:48;8.80;;;4.30;;
7703;SDS011;3894;49.700;10.770;2023-05-07T08:11:13;8.20;;;4.03;;
7703;SDS011;3894;49.700;10.770;2023-05-07T08:13:39;8.63;;;4.45;;
7703;SDS011;3894;49.700;10.770;2023-05-07T08:16:05;8.52;;;4.97;;
7703;SDS011;3894;49.700;10.770;2023-05-07T08:18:31;8.38;;;4.50;;
7703;SDS011;3894;49.700;10.770;2023-05-07T08:20:56;8.35;;;4.47;;
7703;SDS011;3894;49.700;10.770;2023-05-07T08:23:22;8.93;;;4.97;;
7703;SDS011;3894;49.700;10.770;2023-05-07T08:25:48;8.45;;;4.43;;
7703;SDS011;3894;49.700;10.770;2023-05-07T08:28:14;13.13;;;4.57;;
7703;SDS011;3894;49.700;10.770;2023-05-07T08:30:40;7.85;;;4.22;;
7703;SDS011;3894;49.700;10.770;2023-05-07T08:33:05;6.78;;;4.13;;
7703;SDS011;3894;49.700;10.770;2023-05-07T08:35:31;7.75;;;4.38;;
7703;SDS011;3894;49.700;10.770;2023-05-07T08:37:57;8.32;;;4.72;;
7703;SDS011;3894;49.700;10.770;2023-05-07T08:40:23;6.95;;;3.88;;
7703;SDS011;3894;49.700;10.770;2023-05-07T08:42:51;7.28;;;4.40;;
7703;SDS011;3894;49.700;10.770;2023-05-07T08:45:19;8.32;;;4.35;;
7703;SDS011;3894;49.700;10.770;2023-05-07T08:47:53;8.50;;;4.07;;
7703;SDS011;3894;49.700;10.770;2023-05-07T08:50:23;8.30;;;4.43;;
7703;SDS011;3894;49.700;10.770;2023-05-07T08:52:49;7.10;;;3.92;;
7703;SDS011;3894;49.700;10.770;2023-05-07T08:55:14;7.57;;;4.20;;
7703;SDS011;3894;49.700;10.770;2023-05-07T08:57:40;8.02;;;3.90;;
7703;SDS011;3894;49.700;10.770;2023-05-07T09:00:06;7.03;;;3.90;;
7703;SDS011;3894;49.700;10.770;2023-05-07T09:02:32;11.43;;;3.95;;
7703;SDS011;3894;49.700;10.770;2023-05-07T09:05:00;7.72;;;3.67;;
7703;SDS011;3894;49.700;10.770;2023-05-07T09:07:25;8.85;;;3.70;;
7703;SDS011;3894;49.700;10.770;2023-05-07T09:09:51;7.53;;;4.10;;
7703;SDS011;3894;49.700;10.770;2023-05-07T09:12:17;6.65;;;3.75;;
7703;SDS011;3894;49.700;10.770;2023-05-07T09:14:45;7.65;;;3.60;;
7703;SDS011;3894;49.700;10.770;2023-05-07T09:17:11;6.82;;;3.55;;
7703;SDS011;3894;49.700;10.770;2023-05-07T09:19:37;8.50;;;3.67;;
7703;SDS011;3894;49.700;10.770;2023-05-07T09:22:05;7.47;;;4.07;;
7703;SDS011;3894;49.700;10.770;2023-05-07T09:24:32;8.73;;;5.00;;
7703;SDS011;3894;49.700;10.770;2023-05-07T09:27:02;6.55;;;3.35;;
7703;SDS011;3894;49.700;10.770;2023-05-07T09:29:29;8.20;;;3.85;;
7703;SDS011;3894;49.700;10.770;2023-05-07T09:31:57;8.70;;;4.40;;
7703;SDS011;3894;49.700;10.770;2023-05-07T09:34:23;8.38;;;3.53;;
7703;SDS011;3894;49.700;10.770;2023-05-07T09:36:48;6.88;;;3.75;;
7703;SDS011;3894;49.700;10.770;2023-05-07T09:39:15;7.22;;;3.72;;
7703;SDS011;3894;49.700;10.770;2023-05-07T09:41:44;7.50;;;3.40;;
7703;SDS011;3894;49.700;10.770;2023-05-07T09:44:12;6.68;;;3.58;;
7703;SDS011;3894;49.700;10.770;2023-05-07T09:46:39;6.68;;;3.92;;
7703;SDS011;3894;49.700;10.770;2023-05-07T09:49:07;7.78;;;3.60;;
7703;SDS011;3894;49.700;10.770;2023-05-07T09:51:45;6.80;;;3.85;;
7703;SDS011;3894;49.700;10.770;2023-05-07T09:54:14;8.27;;;3.40;;
7703;SDS011;3894;49.700;10.770;2023-05-07T09:56:40;7.03;;;3.85;;
7703;SDS011;3894;49.700;10.770;2023-05-07T09:59:08;8.18;;;4.05;;
7703;SDS011;3894;49.700;10.770;2023-05-07T10:01:37;7.60;;;3.92;;
7703;SDS011;3894;49.700;10.770;2023-05-07T10:04:04;6.40;;;3.25;;
7703;SDS011;3894;49.700;10.770;2023-05-07T10:06:30;6.65;;;3.28;;
7703;SDS011;3894;49.700;10.770;2023-05-07T10:08:56;5.82;;;2.88;;
7703;SDS011;3894;49.700;10.770;2023-05-07T10:11:22;6.95;;;3.40;;
7703;SDS011;3894;49.700;10.770;2023-05-07T10:13:48;6.15;;;3.13;;
7703;SDS011;3894;49.700;10.770;2023-05-07T10:16:14;6.05;;;3.33;;
7703;SDS011;3894;49.700;10.770;2023-05-07T10:18:40;7.57;;;3.30;;
7703;SDS011;3894;49.700;10.770;2023-05-07T10:21:22;7.30;;;3.22;;
7703;SDS011;3894;49.700;10.770;2023-05-07T10:26:42;6.03;;;3.20;;
7703;SDS011;3894;49.700;10.770;2023-05-07T10:29:15;6.00;;;2.90;;
7703;SDS011;3894;49.700;10.770;2023-05-07T10:34:40;6.22;;;3.75;;
7703;SDS011;3894;49.700;10.770;2023-05-07T10:37:09;7.25;;;3.17;;
7703;SDS011;3894;49.700;10.770;2023-05-07T10:39:35;7.90;;;2.90;;
7703;SDS011;3894;49.700;10.770;2023-05-07T10:42:11;8.43;;;3.35;;
7703;SDS011;3894;49.700;10.770;2023-05-07T10:44:38;6.07;;;3.15;;
7703;SDS011;3894;49.700;10.770;2023-05-07T10:47:05;6.38;;;2.97;;
7703;SDS011;3894;49.700;10.770;2023-05-07T10:49:33;6.25;;;2.95;;
7703;SDS011;3894;49.700;10.770;2023-05-07T10:52:20;6.22;;;3.08;;
7703;SDS011;3894;49.700;10.770;2023-05-07T10:57:42;5.07;;;2.85;;
7703;SDS011;3894;49.700;10.770;2023-05-07T11:05:27;5.85;;;3.10;;
7703;SDS011;3894;49.700;10.770;2023-05-07T11:07:59;8.65;;;3.38;;
7703;SDS011;3894;49.700;10.770;2023-05-07T11:13:15;5.78;;;2.90;;
7703;SDS011;3894;49.700;10.770;2023-05-07T11:15:45;7.07;;;2.70;;
7703;SDS011;3894;49.700;10.770;2023-05-07T11:18:12;6.60;;;2.60;;
7703;SDS011;3894;49.700;10.770;2023-05-07T11:20:55;8.10;;;3.13;;
7703;SDS011;3894;49.700;10.770;2023-05-07T11:26:00;5.13;;;2.60;;
7703;SDS011;3894;49.700;10.770;2023-05-07T11:28:37;6.95;;;2.83;;
7703;SDS011;3894;49.700;10.770;2023-05-07T11:31:03;6.93;;;2.85;;
7703;SDS011;3894;49.700;10.770;2023-05-07T11:33:30;4.82;;;2.25;;
7703;SDS011;3894;49.700;10.770;2023-05-07T11:35:56;6.68;;;2.10;;
7703;SDS011;3894;49.700;10.770;2023-05-07T11:38:22;7.30;;;2.58;;
7703;SDS011;3894;49.700;10.770;2023-05-07T11:40:51;6.70;;;2.63;;
7703;SDS011;3894;49.700;10.770;2023-05-07T11:43:18;5.30;;;2.13;;
7703;SDS011;3894;49.700;10.770;2023-05-07T11:45:44;4.20;;;1.80;;
7703;SDS011;3894;49.700;10.770;2023-05-07T11:48:11;5.15;;;1.92;;
7703;SDS011;3894;49.700;10.770;2023-05-07T11:50:49;4.03;;;1.73;;
7703;SDS011;3894;49.700;10.770;2023-05-07T11:53:17;4.95;;;1.55;;
7703;SDS011;3894;49.700;10.770;2023-05-07T11:55:44;5.03;;;2.03;;
7703;SDS011;3894;49.700;10.770;2023-05-07T11:58:12;4.63;;;2.03;;
7703;SDS011;3894;49.700;10.770;2023-05-07T12:00:38;5.38;;;1.90;;
7703;SDS011;3894;49.700;10.770;2023-05-07T12:03:06;4.22;;;2.25;;
7703;SDS011;3894;49.700;10.770;2023-05-07T12:05:31;4.95;;;1.50;;
7703;SDS011;3894;49.700;10.770;2023-05-07T12:07:57;7.18;;;2.08;;
7703;SDS011;3894;49.700;10.770;2023-05-07T12:10:23;4.88;;;2.17;;
7703;SDS011;3894;49.700;10.770;2023-05-07T12:12:49;4.97;;;2.47;;
7703;SDS011;3894;49.700;10.770;2023-05-07T12:15:15;5.70;;;2.22;;
7703;SDS011;3894;49.700;10.770;2023-05-07T12:17:42;6.28;;;3.38;;
7703;SDS011;3894;49.700;10.770;2023-05-07T12:20:08;4.85;;;2.00;;
7703;SDS011;3894;49.700;10.770;2023-05-07T12:22:35;4.70;;;2.40;;
7703;SDS011;3894;49.700;10.770;2023-05-07T12:25:01;6.18;;;2.05;;
7703;SDS011;3894;49.700;10.770;2023-05-07T12:27:27;5.15;;;1.95;;
7703;SDS011;3894;49.700;10.770;2023-05-07T12:29:53;4.80;;;2.13;;
7703;SDS011;3894;49.700;10.770;2023-05-07T12:32:19;5.35;;;1.95;;
7703;SDS011;3894;49.700;10.770;2023-05-07T12:34:46;4.95;;;1.85;;
7703;SDS011;3894;49.700;10.770;2023-05-07T12:37:14;5.07;;;2.03;;
7703;SDS011;3894;49.700;10.770;2023-05-07T12:39:49;5.20;;;1.77;;
7703;SDS011;3894;49.700;10.770;2023-05-07T12:42:28;4.32;;;1.83;;
7703;SDS011;3894;49.700;10.770;2023-05-07T12:44:58;4.43;;;2.25;;
7703;SDS011;3894;49.700;10.770;2023-05-07T12:47:24;4.78;;;2.00;;
7703;SDS011;3894;49.700;10.770;2023-05-07T12:52:16;4.30;;;1.73;;
7703;SDS011;3894;49.700;10.770;2023-05-07T12:54:42;4.53;;;1.75;;
7703;SDS011;3894;49.700;10.770;2023-05-07T12:57:09;4.07;;;1.77;;
7703;SDS011;3894;49.700;10.770;2023-05-07T12:59:39;4.57;;;1.80;;
7703;SDS011;3894;49.700;10.770;2023-05-07T13:02:06;4.80;;;1.98;;
7703;SDS011;3894;49.700;10.770;2023-05-07T13:04:32;4.20;;;1.70;;
7703;SDS011;3894;49.700;10.770;2023-05-07T13:06:58;5.60;;;1.85;;
7703;SDS011;3894;49.700;10.770;2023-05-07T13:09:25;3.85;;;1.38;;
7703;SDS011;3894;49.700;10.770;2023-05-07T13:11:50;4.63;;;1.73;;
7703;SDS011;3894;49.700;10.770;2023-05-07T13:14:16;4.35;;;1.70;;
7703;SDS011;3894;49.700;10.770;2023-05-07T13:16:41;4.97;;;1.88;;
7703;SDS011;3894;49.700;10.770;2023-05-07T13:19:07;4.57;;;1.60;;
7703;SDS011;3894;49.700;10.770;2023-05-07T13:21:33;5.05;;;1.50;;
7703;SDS011;3894;49.700;10.770;2023-05-07T13:23:58;3.92;;;1.38;;
7703;SDS011;3894;49.700;10.770;2023-05-07T13:26:24;4.20;;;1.25;;
7703;SDS011;3894;49.700;10.770;2023-05-07T13:28:51;4.00;;;1.13;;
7703;SDS011;3894;49.700;10.770;2023-05-07T13:31:17;4.80;;;1.70;;
7703;SDS011;3894;49.700;10.770;2023-05-07T13:33:43;4.40;;;1.85;;
7703;SDS011;3894;49.700;10.770;2023-05-07T13:36:08;4.72;;;1.90;;
7703;SDS011;3894;49.700;10.770;2023-05-07T13:38:34;4.63;;;1.70;;
7703;SDS011;3894;49.700;10.770;2023-05-07T13:41:00;4.82;;;1.52;;
7703;SDS011;3894;49.700;10.770;2023-05-07T13:43:25;3.45;;;1.30;;
7703;SDS011;3894;49.700;10.770;2023-05-07T13:45:51;4.50;;;1.58;;
7703;SDS011;3894;49.700;10.770;2023-05-07T13:48:16;4.57;;;1.60;;
7703;SDS011;3894;49.700;10.770;2023-05-07T13:50:42;4.50;;;1.63;;
7703;SDS011;3894;49.700;10.770;2023-05-07T13:53:07;4.35;;;1.40;;
7703;SDS011;3894;49.700;10.770;2023-05-07T13:55:33;3.80;;;1.60;;
7703;SDS011;3894;49.700;10.770;2023-05-07T13:58:00;4.47;;;1.52;;
7703;SDS011;3894;49.700;10.770;2023-05-07T14:00:27;5.05;;;1.88;;
7703;SDS011;3894;49.700;10.770;2023-05-07T14:02:54;5.70;;;1.70;;
7703;SDS011;3894;49.700;10.770;2023-05-07T14:05:21;4.20;;;2.05;;
7703;SDS011;3894;49.700;10.770;2023-05-07T14:07:51;4.88;;;1.92;;
7703;SDS011;3894;49.700;10.770;2023-05-07T14:10:17;5.03;;;1.83;;
7703;SDS011;3894;49.700;10.770;2023-05-07T14:12:44;4.10;;;1.35;;
7703;SDS011;3894;49.700;10.770;2023-05-07T14:15:10;4.90;;;1.50;;
7703;SDS011;3894;49.700;10.770;2023-05-07T14:17:36;4.15;;;1.60;;
7703;SDS011;3894;49.700;10.770;2023-05-07T14:20:01;5.78;;;2.70;;
7703;SDS011;3894;49.700;10.770;2023-05-07T14:22:27;6.93;;;3.35;;
7703;SDS011;3894;49.700;10.770;2023-05-07T14:24:53;5.97;;;2.38;;
7703;SDS011;3894;49.700;10.770;2023-05-07T14:27:18;5.05;;;1.92;;
7703;SDS011;3894;49.700;10.770;2023-05-07T14:29:44;5.53;;;1.77;;
7703;SDS011;3894;49.700;10.770;2023-05-07T14:32:10;4.70;;;2.15;;
7703;SDS011;3894;49.700;10.770;2023-05-07T14:34:36;4.22;;;1.95;;
7703;SDS011;3894;49.700;10.770;2023-05-07T14:37:01;5.13;;;1.73;;
7703;SDS011;3894;49.700;10.770;2023-05-07T14:39:27;5.63;;;2.38;;
7703;SDS011;3894;49.700;10.770;2023-05-07T14:41:53;4.95;;;2.22;;
7703;SDS011;3894;49.700;10.770;2023-05-07T14:44:19;4.30;;;2.08;;
7703;SDS011;3894;49.700;10.770;2023-05-07T14:46:50;5.90;;;2.47;;
7703;SDS011;3894;49.700;10.770;2023-05-07T14:49:15;4.15;;;1.63;;
7703;SDS011;3894;49.700;10.770;2023-05-07T14:51:44;5.43;;;1.80;;
7703;SDS011;3894;49.700;10.770;2023-05-07T14:54:10;5.25;;;2.08;;
7703;SDS011;3894;49.700;10.770;2023-05-07T14:56:36;4.18;;;1.50;;
7703;SDS011;3894;49.700;10.770;2023-05-07T14:59:02;5.00;;;2.42;;
7703;SDS011;3894;49.700;10.770;2023-05-07T15:01:28;5.47;;;2.00;;
7703;SDS011;3894;49.700;10.770;2023-05-07T15:03:54;5.38;;;2.17;;
7703;SDS011;3894;49.700;10.770;2023-05-07T15:06:20;5.13;;;2.08;;
7703;SDS011;3894;49.700;10.770;2023-05-07T15:08:46;7.13;;;3.03;;
7703;SDS011;3894;49.700;10.770;2023-05-07T15:11:12;5.63;;;2.60;;
7703;SDS011;3894;49.700;10.770;2023-05-07T15:13:37;6.95;;;3.30;;
7703;SDS011;3894;49.700;10.770;2023-05-07T15:16:03;8.80;;;4.13;;
7703;SDS011;3894;49.700;10.770;2023-05-07T15:18:28;6.25;;;2.47;;
7703;SDS011;3894;49.700;10.770;2023-05-07T15:20:55;8.27;;;4.05;;
7703;SDS011;3894;49.700;10.770;2023-05-07T15:23:21;9.63;;;4.43;;
7703;SDS011;3894;49.700;10.770;2023-05-07T15:25:47;7.70;;;3.67;;
7703;SDS011;3894;49.700;10.770;2023-05-07T15:28:12;6.03;;;2.72;;
7703;SDS011;3894;49.700;10.770;2023-05-07T15:30:38;5.07;;;2.42;;